Time;durP1;ratioP1;P1;durP2;ratioP2;P2;SDS_P1;SDS_P2;PMS_P1;PMS_P2;Temp;Humidity;BMP_temperature;BMP_pressure;BME280_temperature;BME280_humidity;BME280_pressure;Samples;Min_cycle;Max_cycle;Signal;HPM_P1;HPM_P2
2020/12/25 00:01:20;;;;;;;2.70;1.20;;;7.30;91.30;;;;;;5068682;28;20880;-70
2020/12/25 00:03:47;;;;;;;1.92;1.10;;;7.30;91.20;;;;;;5072378;28;20427;-70
2020/12/25 00:06:14;;;;;;;2.72;1.27;;;7.20;91.20;;;;;;5068035;28;20412;-70
2020/12/25 00:08:42;;;;;;;2.00;1.10;;;7.20;91.20;;;;;;5071685;28;20404;-70
2020/12/25 00:11:09;;;;;;;1.95;1.05;;;7.30;91.10;;;;;;5047332;28;20424;-71
2020/12/25 00:13:44;;;;;;;2.08;1.02;;;7.30;91.00;;;;;;5050854;28;20483;-70
2020/12/25 00:16:10;;;;;;;2.60;1.20;;;7.40;90.90;;;;;;5049539;28;20413;-70
2020/12/25 00:18:40;;;;;;;2.08;1.00;;;7.30;90.80;;;;;;5034218;28;20470;-70
2020/12/25 00:21:09;;;;;;;1.90;1.10;;;7.30;90.90;;;;;;5048711;28;20432;-70
2020/12/25 00:23:38;;;;;;;3.40;1.05;;;7.30;90.90;;;;;;5051678;28;20462;-70
2020/12/25 00:26:04;;;;;;;3.22;1.20;;;7.20;91.00;;;;;;5051787;28;20730;-70
2020/12/25 00:28:30;;;;;;;2.87;1.30;;;7.20;91.10;;;;;;5051939;28;20419;-70
2020/12/25 00:30:57;;;;;;;3.50;1.80;;;7.20;91.10;;;;;;5071670;28;20407;-70
2020/12/25 00:33:25;;;;;;;1.63;1.10;;;7.30;91.00;;;;;;5068199;28;20404;-70
2020/12/25 00:35:51;;;;;;;2.70;1.20;;;7.30;90.70;;;;;;5053730;28;20752;-70
2020/12/25 00:38:18;;;;;;;1.17;1.08;;;7.20;91.00;;;;;;5068178;28;20455;-70
2020/12/25 00:40:44;;;;;;;1.70;1.27;;;7.20;91.30;;;;;;5071202;28;20717;-70
2020/12/25 00:43:11;;;;;;;4.23;1.43;;;7.10;91.50;;;;;;5067435;28;20411;-70
2020/12/25 00:45:39;;;;;;;1.42;1.23;;;7.10;91.90;;;;;;5071306;28;20844;-70
2020/12/25 00:48:05;;;;;;;2.00;1.40;;;7.10;92.30;;;;;;5044793;28;20439;-70
2020/12/25 00:50:31;;;;;;;2.33;1.55;;;7.00;92.30;;;;;;5051134;28;20405;-70
2020/12/25 00:52:58;;;;;;;2.97;1.60;;;7.00;92.40;;;;;;5033613;28;20447;-70
2020/12/25 00:55:24;;;;;;;2.63;1.50;;;7.00;92.30;;;;;;5071167;28;20802;-70
2020/12/25 00:57:50;;;;;;;5.77;1.60;;;7.00;92.50;;;;;;5053582;28;20795;-70
2020/12/25 01:00:17;;;;;;;2.70;1.40;;;7.00;92.70;;;;;;5048973;28;20461;-70
2020/12/25 01:02:43;;;;;;;3.17;1.50;;;7.00;92.70;;;;;;5051150;28;21188;-70
2020/12/25 01:05:11;;;;;;;2.27;1.50;;;6.90;92.80;;;;;;5063287;28;20417;-70
2020/12/25 01:07:37;;;;;;;2.03;1.30;;;6.90;92.90;;;;;;5071187;28;20474;-70
2020/12/25 01:10:06;;;;;;;2.97;1.70;;;6.90;93.00;;;;;;5067926;28;20404;-70
2020/12/25 01:12:33;;;;;;;2.60;1.65;;;6.90;93.10;;;;;;5070652;28;20423;-70
2020/12/25 01:14:59;;;;;;;2.40;1.60;;;6.90;93.30;;;;;;5050868;28;20403;-70
2020/12/25 01:17:26;;;;;;;2.70;1.60;;;6.90;93.40;;;;;;5070910;28;20421;-70
2020/12/25 01:19:53;;;;;;;3.22;1.50;;;6.90;93.20;;;;;;5067918;28;20477;-70
2020/12/25 01:22:19;;;;;;;3.13;1.65;;;6.90;93.40;;;;;;5053642;28;20447;-70
2020/12/25 01:24:46;;;;;;;3.05;1.67;;;6.90;93.70;;;;;;5050130;28;20404;-70
2020/12/25 01:27:12;;;;;;;2.25;1.50;;;6.90;93.60;;;;;;5053347;28;20463;-70
2020/12/25 01:29:41;;;;;;;1.93;1.40;;;6.80;93.70;;;;;;5070638;28;21083;-70
2020/12/25 01:32:07;;;;;;;2.35;1.50;;;6.80;93.80;;;;;;5067952;28;20416;-70
2020/12/25 01:34:33;;;;;;;3.97;1.50;;;6.80;93.90;;;;;;5053479;28;20404;-70
2020/12/25 01:37:00;;;;;;;2.07;1.40;;;6.90;93.70;;;;;;5067160;28;20621;-70
2020/12/25 01:39:29;;;;;;;2.50;1.35;;;6.90;93.20;;;;;;5052981;28;20733;-70
2020/12/25 01:41:55;;;;;;;2.60;1.30;;;6.90;93.40;;;;;;5054715;28;20490;-70
2020/12/25 01:44:24;;;;;;;2.47;1.17;;;6.80;93.40;;;;;;5050223;28;20440;-70
2020/12/25 01:46:51;;;;;;;2.20;1.10;;;6.80;93.20;;;;;;5039918;28;20421;-70
2020/12/25 01:49:17;;;;;;;1.88;1.20;;;6.90;93.20;;;;;;5052644;28;20902;-70
2020/12/25 01:51:44;;;;;;;2.03;0.80;;;6.80;93.00;;;;;;5049454;28;20407;-70
2020/12/25 01:54:11;;;;;;;1.98;1.00;;;6.80;93.10;;;;;;5070123;28;20501;-70
2020/12/25 01:56:40;;;;;;;1.30;0.70;;;6.80;92.90;;;;;;5067293;28;20883;-70
2020/12/25 01:59:07;;;;;;;1.43;0.70;;;6.70;92.90;;;;;;5052603;28;20419;-70
2020/12/25 02:01:35;;;;;;;0.93;0.70;;;6.80;92.40;;;;;;5067930;28;20438;-70
2020/12/25 02:04:02;;;;;;;1.05;0.70;;;6.80;92.50;;;;;;5070119;28;20457;-70
2020/12/25 02:06:40;;;;;;;1.30;0.70;;;6.70;92.70;;;;;;5053174;28;20454;-70
2020/12/25 02:09:07;;;;;;;1.23;0.80;;;6.70;93.00;;;;;;5066665;28;20470;-70
2020/12/25 02:11:36;;;;;;;1.70;1.00;;;6.70;93.20;;;;;;5052527;28;20847;-70
2020/12/25 02:14:05;;;;;;;1.00;0.90;;;6.70;93.20;;;;;;5066613;28;20419;-70
2020/12/25 02:16:32;;;;;;;1.35;0.90;;;6.60;93.30;;;;;;5052722;28;20399;-70
2020/12/25 02:19:00;;;;;;;0.80;0.70;;;6.60;93.30;;;;;;5066644;28;20428;-70
2020/12/25 02:21:27;;;;;;;1.38;0.80;;;6.60;93.20;;;;;;5070304;28;20451;-70
2020/12/25 02:23:53;;;;;;;1.08;0.70;;;6.50;93.40;;;;;;5066501;28;20473;-71
2020/12/25 02:26:20;;;;;;;0.75;0.60;;;6.50;93.60;;;;;;5052977;28;20492;-70
2020/12/25 02:28:48;;;;;;;1.77;0.70;;;6.50;93.80;;;;;;5066471;28;20431;-70
2020/12/25 02:31:14;;;;;;;0.60;0.60;;;6.40;93.80;;;;;;5070253;28;20449;-70
2020/12/25 02:33:41;;;;;;;0.75;0.60;;;6.40;93.70;;;;;;5066688;28;20407;-70
2020/12/25 02:36:10;;;;;;;2.20;0.82;;;6.40;93.70;;;;;;5052804;28;20465;-70
2020/12/25 02:38:39;;;;;;;1.05;0.57;;;6.40;93.80;;;;;;5051247;28;20844;-70
2020/12/25 02:41:06;;;;;;;0.63;0.60;;;6.40;93.80;;;;;;5031700;28;21016;-70
2020/12/25 02:43:33;;;;;;;2.40;0.60;;;6.40;93.60;;;;;;5051410;28;20789;-70
2020/12/25 02:45:59;;;;;;;1.65;0.80;;;6.50;93.50;;;;;;5067610;28;20876;-70
2020/12/25 02:48:25;;;;;;;0.70;0.70;;;6.50;93.40;;;;;;5073699;28;20771;-70
2020/12/25 02:50:52;;;;;;;2.10;0.80;;;6.40;93.50;;;;;;5052293;28;20411;-70
2020/12/25 02:53:20;;;;;;;1.15;0.88;;;6.50;93.60;;;;;;5073615;28;20763;-70
2020/12/25 02:55:47;;;;;;;1.02;0.75;;;6.40;93.60;;;;;;5070226;28;20407;-70
2020/12/25 02:58:13;;;;;;;1.10;0.80;;;6.40;93.40;;;;;;5073500;28;20473;-70
2020/12/25 03:00:42;;;;;;;0.87;0.70;;;6.40;93.50;;;;;;5069857;28;20506;-70
2020/12/25 03:03:11;;;;;;;1.10;0.70;;;6.40;93.40;;;;;;5055709;28;20483;-70
2020/12/25 03:05:38;;;;;;;1.45;0.70;;;6.40;93.50;;;;;;5048653;28;20406;-70
2020/12/25 03:08:04;;;;;;;0.90;0.52;;;6.40;93.70;;;;;;5053358;28;20954;-70
2020/12/25 03:10:31;;;;;;;1.40;0.70;;;6.30;93.90;;;;;;5033369;28;20919;-70
2020/12/25 03:12:57;;;;;;;1.97;0.80;;;6.30;93.70;;;;;;5053152;28;20425;-70
2020/12/25 03:15:24;;;;;;;1.13;0.82;;;6.40;93.70;;;;;;5053030;28;20508;-70
2020/12/25 03:17:50;;;;;;;1.08;0.80;;;6.40;93.70;;;;;;5032836;28;20915;-70
2020/12/25 03:20:17;;;;;;;2.42;1.13;;;6.40;93.80;;;;;;5053291;28;20483;-70
2020/12/25 03:22:43;;;;;;;1.70;1.02;;;6.30;93.80;;;;;;5032992;28;20437;-70
2020/12/25 03:25:12;;;;;;;2.20;1.20;;;6.40;93.90;;;;;;5035476;28;21062;-70
2020/12/25 03:27:41;;;;;;;2.20;1.20;;;6.40;93.90;;;;;;5060995;28;20432;-70
2020/12/25 03:30:07;;;;;;;2.00;1.10;;;6.40;94.00;;;;;;5072583;28;20469;-70
2020/12/25 03:32:33;;;;;;;1.45;1.20;;;6.30;94.20;;;;;;5051658;28;20856;-70
2020/12/25 03:35:00;;;;;;;3.50;1.63;;;6.30;94.40;;;;;;5055416;28;20482;-70
2020/12/25 03:37:26;;;;;;;2.72;1.50;;;6.30;94.30;;;;;;5069675;28;20403;-70
2020/12/25 03:39:53;;;;;;;1.65;1.38;;;6.20;94.40;;;;;;5055081;28;20452;-70
2020/12/25 03:42:19;;;;;;;2.05;1.65;;;6.30;94.50;;;;;;5069139;28;20395;-70
2020/12/25 03:44:45;;;;;;;2.90;1.38;;;6.20;94.80;;;;;;5072770;28;20453;-70
2020/12/25 03:47:12;;;;;;;2.65;1.52;;;6.30;94.80;;;;;;5072393;28;20468;-70
2020/12/25 03:49:43;;;;;;;1.70;1.60;;;6.30;94.50;;;;;;5069306;28;20807;-70
2020/12/25 03:52:09;;;;;;;4.45;1.70;;;6.20;94.60;;;;;;5054998;28;20424;-70
2020/12/25 03:54:36;;;;;;;3.08;1.42;;;6.20;94.80;;;;;;5049937;28;20508;-70
2020/12/25 03:57:02;;;;;;;2.45;1.60;;;6.10;94.70;;;;;;5072160;28;20412;-70
2020/12/25 03:59:28;;;;;;;3.70;1.70;;;6.10;94.90;;;;;;5060388;28;20789;-70
2020/12/25 04:01:57;;;;;;;2.80;1.65;;;6.10;95.20;;;;;;5052398;28;20401;-70
2020/12/25 04:04:23;;;;;;;2.35;1.83;;;6.20;94.90;;;;;;5043623;28;20437;-70
2020/12/25 04:06:52;;;;;;;3.23;2.00;;;6.10;94.90;;;;;;5052430;28;20437;-70
2020/12/25 04:09:18;;;;;;;2.20;1.90;;;6.10;95.10;;;;;;5031990;28;20479;-70
2020/12/25 04:11:47;;;;;;;2.63;1.80;;;6.10;95.20;;;;;;5034328;28;20963;-70
2020/12/25 04:14:17;;;;;;;3.70;2.00;;;6.10;95.10;;;;;;5033819;28;20808;-70
2020/12/25 04:16:43;;;;;;;3.45;2.30;;;6.10;94.80;;;;;;5054775;28;20439;-70
2020/12/25 04:19:10;;;;;;;4.07;2.20;;;6.10;94.70;;;;;;5054308;28;20403;-70
2020/12/25 04:21:38;;;;;;;2.88;2.38;;;6.10;95.00;;;;;;5049850;28;20495;-70
2020/12/25 04:24:05;;;;;;;2.90;2.55;;;6.10;95.30;;;;;;5051875;28;20433;-70
2020/12/25 04:26:31;;;;;;;3.53;2.20;;;6.10;95.40;;;;;;5064702;28;20440;-70
2020/12/25 04:29:03;;;;;;;3.20;2.13;;;6.10;95.50;;;;;;5071394;28;20860;-70
2020/12/25 04:31:29;;;;;;;2.60;2.00;;;6.10;95.40;;;;;;5038777;28;20612;-70
2020/12/25 04:33:58;;;;;;;2.75;1.70;;;6.10;95.30;;;;;;5051463;28;20409;-70
2020/12/25 04:36:29;;;;;;;2.67;1.55;;;6.10;95.00;;;;;;5059212;28;20412;-70
2020/12/25 04:38:56;;;;;;;1.73;1.20;;;6.10;95.00;;;;;;5071569;28;20412;-70
2020/12/25 04:41:25;;;;;;;1.00;0.90;;;6.10;94.70;;;;;;5044109;28;20521;-70
2020/12/25 04:43:55;;;;;;;0.70;0.70;;;6.00;93.90;;;;;;5051346;28;20440;-70
2020/12/25 04:46:22;;;;;;;0.55;0.50;;;5.90;93.90;;;;;;5035278;28;20416;-70
2020/12/25 04:48:49;;;;;;;3.25;0.55;;;5.90;93.70;;;;;;5054202;28;20432;-70
2020/12/25 04:51:16;;;;;;;1.20;0.45;;;5.90;93.60;;;;;;5068271;28;20447;-70
2020/12/25 04:53:47;;;;;;;1.02;0.40;;;5.70;93.30;;;;;;5053701;28;20404;-70
2020/12/25 04:56:16;;;;;;;0.65;0.40;;;5.60;93.50;;;;;;5071377;28;20485;-70
2020/12/25 04:58:46;;;;;;;0.32;0.32;;;5.50;93.70;;;;;;5067587;28;20533;-70
2020/12/25 05:01:13;;;;;;;0.38;0.38;;;5.60;93.90;;;;;;5053486;28;20929;-70
2020/12/25 05:03:41;;;;;;;1.10;0.50;;;5.50;93.70;;;;;;5066911;28;20837;-70
2020/12/25 05:06:09;;;;;;;1.13;0.60;;;5.50;93.90;;;;;;5053273;28;20407;-70
2020/12/25 05:08:43;;;;;;;1.30;0.87;;;5.50;94.20;;;;;;5049767;28;20407;-70
2020/12/25 05:11:12;;;;;;;1.52;0.90;;;5.40;94.10;;;;;;5071017;28;20720;-70
2020/12/25 05:13:49;;;;;;;1.40;0.77;;;5.40;94.20;;;;;;5067354;28;20412;-70
2020/12/25 05:16:17;;;;;;;1.50;0.97;;;5.30;94.40;;;;;;5053544;28;20714;-70
2020/12/25 05:18:46;;;;;;;1.10;0.90;;;5.30;94.60;;;;;;5049147;28;20906;-70
2020/12/25 05:21:17;;;;;;;1.20;1.08;;;5.30;94.60;;;;;;5053104;28;20431;-70
2020/12/25 05:23:45;;;;;;;2.17;1.20;;;5.20;94.10;;;;;;5073666;28;20479;-70
2020/12/25 05:26:14;;;;;;;1.60;1.10;;;5.10;94.30;;;;;;5090871;28;20398;-70
2020/12/25 05:28:44;;;;;;;1.98;1.10;;;5.10;94.50;;;;;;5065480;28;20386;-70
2020/12/25 05:31:14;;;;;;;1.20;1.10;;;5.00;94.70;;;;;;5053313;28;20395;-70
2020/12/25 05:33:41;;;;;;;1.20;1.10;;;5.00;94.70;;;;;;5067352;28;20412;-70
2020/12/25 05:36:09;;;;;;;1.70;1.00;;;5.00;94.60;;;;;;5053514;28;20394;-70
2020/12/25 05:38:39;;;;;;;1.45;1.10;;;5.00;94.60;;;;;;5070697;28;20408;-70
2020/12/25 05:41:08;;;;;;;0.93;0.88;;;5.00;94.50;;;;;;5045817;28;20508;-70
2020/12/25 05:43:34;;;;;;;1.70;1.00;;;5.00;94.40;;;;;;5049726;28;20409;-70
2020/12/25 05:46:01;;;;;;;1.10;1.00;;;5.00;94.20;;;;;;5033883;28;20405;-70
2020/12/25 05:48:27;;;;;;;1.50;1.15;;;4.90;94.20;;;;;;5050566;28;20514;-70
2020/12/25 05:50:54;;;;;;;1.30;1.17;;;4.90;94.30;;;;;;5047906;28;20451;-70
2020/12/25 05:53:21;;;;;;;1.75;1.10;;;4.90;94.50;;;;;;5033493;28;20486;-70
2020/12/25 05:55:47;;;;;;;1.85;1.00;;;4.90;94.60;;;;;;5056869;28;20411;-70
2020/12/25 05:58:17;;;;;;;1.35;1.08;;;4.90;94.50;;;;;;5052748;28;20411;-70
2020/12/25 06:00:47;;;;;;;1.35;1.10;;;4.80;94.50;;;;;;5061502;28;20549;-70
2020/12/25 06:03:18;;;;;;;1.27;1.17;;;4.80;94.50;;;;;;5050963;28;20463;-70
2020/12/25 06:05:46;;;;;;;1.63;1.40;;;4.80;94.40;;;;;;5033351;28;20650;-70
2020/12/25 06:08:37;;;;;;;1.98;1.30;;;4.70;94.40;;;;;;5052865;28;20465;-70
2020/12/25 06:11:04;;;;;;;1.27;1.17;;;4.60;94.70;;;;;;5067479;28;20544;-70
2020/12/25 06:13:41;;;;;;;2.58;1.10;;;4.60;94.70;;;;;;5052327;28;20751;-70
2020/12/25 06:16:14;;;;;;;1.70;1.17;;;4.60;94.60;;;;;;5032293;28;20442;-70
2020/12/25 06:18:51;;;;;;;1.25;1.00;;;4.60;94.80;;;;;;5051463;28;20815;-70
2020/12/25 06:21:31;;;;;;;1.30;0.90;;;4.60;94.80;;;;;;5034547;28;20540;-70
2020/12/25 06:23:59;;;;;;;1.08;0.98;;;4.50;94.50;;;;;;5056745;28;20438;-70
2020/12/25 06:26:27;;;;;;;1.07;0.93;;;4.50;94.70;;;;;;5073817;28;20440;-70
2020/12/25 06:28:54;;;;;;;1.20;0.88;;;4.50;94.60;;;;;;5035740;28;20432;-70
2020/12/25 06:31:35;;;;;;;0.90;0.80;;;4.50;93.30;;;;;;5054352;28;20420;-70
2020/12/25 06:34:04;;;;;;;1.35;0.70;;;4.40;93.40;;;;;;5051462;28;20427;-69
2020/12/25 06:36:33;;;;;;;0.85;0.80;;;4.30;93.10;;;;;;5074359;28;20457;-69
2020/12/25 06:39:09;;;;;;;1.65;0.93;;;4.20;93.30;;;;;;5052475;28;20469;-69
2020/12/25 06:41:41;;;;;;;1.75;0.90;;;4.20;93.70;;;;;;5056385;28;20737;-69
2020/12/25 06:44:19;;;;;;;1.20;0.80;;;4.20;94.30;;;;;;5052111;28;20794;-69
2020/12/25 06:46:50;;;;;;;3.15;1.00;;;4.10;94.30;;;;;;5073710;28;20892;-69
2020/12/25 06:49:20;;;;;;;1.30;0.90;;;4.20;94.40;;;;;;5052818;28;20503;-69
2020/12/25 06:51:47;;;;;;;3.08;0.80;;;4.10;94.00;;;;;;5056512;28;20408;-69
2020/12/25 06:54:21;;;;;;;1.10;1.00;;;4.10;94.00;;;;;;5069907;28;20454;-69
2020/12/25 06:56:52;;;;;;;2.95;0.80;;;4.10;93.70;;;;;;5073692;28;20407;-69
2020/12/25 06:59:21;;;;;;;0.98;0.80;;;4.00;93.90;;;;;;5063544;28;20792;-70
2020/12/25 07:01:52;;;;;;;0.85;0.70;;;4.00;93.10;;;;;;5053747;28;20429;-69
2020/12/25 07:04:31;;;;;;;1.23;0.80;;;3.90;93.70;;;;;;5039100;28;20495;-69
2020/12/25 07:07:12;;;;;;;1.10;0.75;;;3.90;94.20;;;;;;5073604;28;20451;-69
2020/12/25 07:09:46;;;;;;;1.40;0.80;;;3.80;93.90;;;;;;5070161;28;20400;-69
2020/12/25 07:12:14;;;;;;;1.10;0.95;;;3.80;93.70;;;;;;5073458;28;20702;-69
2020/12/25 07:14:40;;;;;;;1.67;1.10;;;3.80;93.60;;;;;;5051995;28;20489;-69
2020/12/25 07:17:07;;;;;;;1.60;0.80;;;3.70;93.90;;;;;;5056227;28;20408;-69
2020/12/25 07:19:36;;;;;;;0.90;0.80;;;3.70;94.00;;;;;;5067654;28;20468;-69
2020/12/25 07:22:06;;;;;;;0.80;0.80;;;3.70;93.90;;;;;;5073120;28;20446;-69
2020/12/25 07:24:38;;;;;;;1.40;1.00;;;3.60;93.80;;;;;;5073368;28;20404;-69
2020/12/25 07:27:10;;;;;;;3.58;2.38;;;3.60;94.00;;;;;;5051781;28;20418;-69
2020/12/25 07:29:41;;;;;;;1.00;0.90;;;3.60;94.00;;;;;;5072794;28;20404;-69
2020/12/25 07:32:11;;;;;;;0.93;0.88;;;3.50;93.30;;;;;;5069400;28;20489;-69
2020/12/25 07:34:38;;;;;;;1.30;1.10;;;3.40;93.70;;;;;;5055566;28;20408;-69
2020/12/25 07:37:07;;;;;;;1.75;1.08;;;3.40;94.00;;;;;;5051770;28;20407;-69
2020/12/25 07:39:33;;;;;;;1.47;1.17;;;3.40;94.00;;;;;;5054987;28;20419;-69
2020/12/25 07:42:00;;;;;;;1.52;1.10;;;3.30;94.20;;;;;;5069151;28;20427;-69
2020/12/25 07:44:26;;;;;;;1.40;1.20;;;3.30;94.10;;;;;;5072935;28;20447;-69
2020/12/25 07:46:55;;;;;;;1.67;1.20;;;3.30;94.30;;;;;;5069186;28;20465;-69
2020/12/25 07:49:23;;;;;;;1.75;1.30;;;3.30;94.10;;;;;;5072829;28;20474;-69
2020/12/25 07:51:50;;;;;;;2.10;1.30;;;3.20;93.80;;;;;;5069306;28;20447;-69
2020/12/25 07:54:17;;;;;;;2.40;1.58;;;3.10;94.20;;;;;;5055093;28;20468;-69
2020/12/25 07:56:44;;;;;;;2.25;1.40;;;3.10;94.00;;;;;;5051914;28;20410;-69
2020/12/25 07:59:11;;;;;;;5.18;1.45;;;3.10;94.00;;;;;;5067701;28;20409;-69
2020/12/25 08:01:37;;;;;;;2.38;1.30;;;3.00;93.90;;;;;;5051423;28;20456;-69
2020/12/25 08:04:05;;;;;;;1.75;1.50;;;3.00;94.10;;;;;;5051680;28;20465;-69
2020/12/25 08:06:36;;;;;;;1.40;1.30;;;3.00;94.20;;;;;;5055364;28;20485;-69
2020/12/25 08:09:10;;;;;;;1.20;1.10;;;3.00;94.00;;;;;;5036680;28;20413;-69
2020/12/25 08:11:37;;;;;;;1.25;1.15;;;3.00;93.90;;;;;;5034497;28;20927;-69
2020/12/25 08:14:15;;;;;;;6.78;4.20;;;3.00;94.10;;;;;;5024802;28;20474;-69
2020/12/25 08:16:48;;;;;;;6.22;3.38;;;2.90;94.00;;;;;;5052001;28;20908;-69
2020/12/25 08:19:17;;;;;;;4.55;3.45;;;2.90;94.10;;;;;;5048697;28;20437;-69
2020/12/25 08:21:44;;;;;;;2.00;1.50;;;2.90;94.50;;;;;;5034261;28;20425;-69
2020/12/25 08:24:10;;;;;;;1.60;1.40;;;3.00;94.30;;;;;;5048191;28;20420;-69
2020/12/25 08:26:39;;;;;;;2.70;2.00;;;3.00;93.90;;;;;;5051709;28;20421;-69
2020/12/25 08:29:08;;;;;;;3.33;1.90;;;2.90;93.90;;;;;;5030916;28;20921;-69
2020/12/25 08:31:43;;;;;;;2.50;1.83;;;2.90;94.10;;;;;;5051705;28;20410;-69
2020/12/25 08:34:21;;;;;;;2.75;1.90;;;2.90;94.30;;;;;;5048165;28;20445;-69
2020/12/25 08:36:58;;;;;;;2.90;2.60;;;2.90;94.30;;;;;;5051812;28;20475;-69
2020/12/25 08:39:31;;;;;;;2.78;2.20;;;2.90;94.40;;;;;;5048216;28;21712;-69
2020/12/25 08:41:59;;;;;;;2.97;2.10;;;3.00;94.40;;;;;;5051282;28;20429;-69
2020/12/25 08:44:25;;;;;;;3.30;2.00;;;3.00;94.30;;;;;;5014308;28;20463;-69
2020/12/25 08:47:09;;;;;;;5.45;3.83;;;3.00;94.20;;;;;;5051575;28;20409;-69
2020/12/25 08:49:35;;;;;;;6.47;4.20;;;3.00;94.50;;;;;;5049210;28;20431;-69
2020/12/25 08:52:05;;;;;;;5.00;3.30;;;3.00;94.10;;;;;;5032614;28;20417;-69
2020/12/25 08:54:33;;;;;;;22.17;12.00;;;3.00;94.30;;;;;;5033428;28;20464;-69
2020/12/25 08:57:02;;;;;;;18.40;10.93;;;3.10;94.50;;;;;;5047804;28;20409;-69
2020/12/25 08:59:28;;;;;;;8.38;5.43;;;3.10;94.50;;;;;;5051348;28;20494;-69
2020/12/25 09:01:54;;;;;;;7.63;4.97;;;3.20;94.50;;;;;;5047643;28;20425;-69
2020/12/25 09:04:22;;;;;;;5.53;3.13;;;3.20;94.60;;;;;;5033460;28;20680;-69
2020/12/25 09:06:53;;;;;;;6.38;2.78;;;3.20;94.20;;;;;;5047349;28;20405;-69
2020/12/25 09:09:28;;;;;;;6.03;4.17;;;3.20;94.30;;;;;;5050750;28;20422;-69
2020/12/25 09:11:54;;;;;;;1.73;1.38;;;3.30;94.50;;;;;;5032487;28;20421;-70
2020/12/25 09:14:20;;;;;;;1.40;0.98;;;3.40;94.30;;;;;;5053340;28;20841;-69
2020/12/25 09:16:47;;;;;;;1.60;0.90;;;3.50;93.90;;;;;;5066861;28;20556;-69
2020/12/25 09:19:13;;;;;;;1.20;1.10;;;3.70;93.50;;;;;;5053136;28;20400;-69
2020/12/25 09:21:40;;;;;;;2.97;2.45;;;3.80;93.30;;;;;;5049450;28;20500;-69
2020/12/25 09:24:08;;;;;;;4.43;2.10;;;3.90;93.10;;;;;;5071213;28;20725;-69
2020/12/25 09:26:35;;;;;;;2.17;1.67;;;3.90;93.00;;;;;;5053173;28;20400;-69
2020/12/25 09:29:03;;;;;;;3.30;2.65;;;3.90;92.50;;;;;;5067326;28;20427;-69
2020/12/25 09:31:32;;;;;;;2.15;1.65;;;3.90;92.80;;;;;;5070976;28;20775;-69
2020/12/25 09:33:58;;;;;;;5.63;4.00;;;3.90;92.70;;;;;;5067151;28;20476;-69
2020/12/25 09:36:25;;;;;;;4.10;3.08;;;3.90;93.00;;;;;;5052864;28;20445;-69
2020/12/25 09:38:56;;;;;;;5.45;3.97;;;4.00;93.20;;;;;;5066899;28;20464;-69
2020/12/25 09:41:22;;;;;;;5.88;3.85;;;4.00;93.00;;;;;;5053137;28;20427;-69
2020/12/25 09:43:48;;;;;;;14.05;8.18;;;4.00;92.90;;;;;;5066996;28;20490;-69
2020/12/25 09:46:15;;;;;;;10.40;5.97;;;4.10;92.60;;;;;;5070475;28;20407;-69
2020/12/25 09:48:43;;;;;;;4.75;3.38;;;4.20;92.90;;;;;;5060920;28;20405;-69
2020/12/25 09:51:10;;;;;;;9.95;5.50;;;4.20;92.80;;;;;;5050484;28;20413;-69
2020/12/25 09:53:37;;;;;;;21.42;10.75;;;4.20;93.10;;;;;;5047041;28;20425;-69
2020/12/25 09:56:03;;;;;;;29.70;16.17;;;4.20;92.50;;;;;;5032700;28;20425;-69
2020/12/25 09:58:30;;;;;;;21.37;10.43;;;4.20;92.50;;;;;;5031107;28;20471;-69
2020/12/25 10:00:59;;;;;;;34.45;16.13;;;4.10;92.10;;;;;;5069364;28;20477;-69
2020/12/25 10:03:28;;;;;;;9.88;4.80;;;4.00;92.70;;;;;;5070011;28;20400;-69
2020/12/25 10:05:54;;;;;;;7.60;3.53;;;4.00;93.00;;;;;;5032132;28;20417;-69
2020/12/25 10:08:21;;;;;;;10.13;4.80;;;4.00;92.70;;;;;;5050126;28;20405;-69
2020/12/25 10:10:47;;;;;;;4.57;2.40;;;4.00;92.80;;;;;;5060852;28;20876;-69
2020/12/25 10:13:16;;;;;;;5.60;2.50;;;4.00;92.80;;;;;;5069975;28;20925;-69
2020/12/25 10:15:45;;;;;;;4.80;2.20;;;4.00;92.40;;;;;;5038081;28;20413;-69
2020/12/25 10:18:11;;;;;;;2.57;1.50;;;3.90;92.70;;;;;;5050280;28;20466;-69
2020/12/25 10:20:38;;;;;;;23.95;15.95;;;3.90;92.90;;;;;;5054330;28;20427;-69
2020/12/25 10:23:04;;;;;;;9.43;5.80;;;3.90;93.40;;;;;;5070024;28;20428;-69
2020/12/25 10:25:33;;;;;;;18.27;7.93;;;3.90;93.00;;;;;;5048985;28;20407;-69
2020/12/25 10:27:59;;;;;;;22.55;9.10;;;4.00;93.20;;;;;;5052635;28;20458;-69
2020/12/25 10:30:28;;;;;;;9.10;4.03;;;4.00;92.70;;;;;;5066098;28;20461;-69
2020/12/25 10:32:56;;;;;;;5.28;2.53;;;4.00;93.30;;;;;;5049104;28;20457;-69
2020/12/25 10:35:25;;;;;;;14.10;5.80;;;4.00;92.70;;;;;;5049788;28;20412;-69
2020/12/25 10:37:52;;;;;;;8.88;2.88;;;4.00;93.40;;;;;;5065522;28;20422;-69
2020/12/25 10:40:28;;;;;;;13.30;5.83;;;4.10;93.10;;;;;;5070427;28;20662;-69
2020/12/25 10:42:54;;;;;;;15.65;6.28;;;4.10;92.70;;;;;;5033073;28;20416;-69
2020/12/25 10:45:20;;;;;;;13.48;5.80;;;4.20;92.90;;;;;;5050036;28;20413;-69
2020/12/25 10:47:47;;;;;;;9.33;4.80;;;4.10;93.10;;;;;;5060066;28;20404;-69
2020/12/25 10:50:16;;;;;;;5.82;2.55;;;4.10;92.70;;;;;;5052065;28;20411;-69
2020/12/25 10:52:42;;;;;;;5.57;3.10;;;4.00;93.00;;;;;;5057047;28;20873;-69
2020/12/25 10:55:11;;;;;;;3.95;1.98;;;3.90;92.70;;;;;;5049846;28;20794;-69
2020/12/25 10:57:37;;;;;;;10.83;4.27;;;3.80;93.00;;;;;;5029971;28;20409;-69
2020/12/25 11:00:06;;;;;;;7.78;3.75;;;3.80;93.30;;;;;;5062179;28;20404;-69
2020/12/25 11:02:35;;;;;;;7.55;3.85;;;3.70;93.60;;;;;;5066811;28;20508;-69
2020/12/25 11:05:01;;;;;;;5.57;3.50;;;3.80;93.60;;;;;;5071642;28;20540;-69
2020/12/25 11:07:27;;;;;;;3.63;2.10;;;3.80;93.60;;;;;;5053094;28;20408;-69
2020/12/25 11:09:58;;;;;;;1.88;1.40;;;3.70;94.10;;;;;;5036148;28;20433;-69
2020/12/25 11:12:27;;;;;;;2.70;1.90;;;3.60;94.00;;;;;;5053019;28;20421;-69
2020/12/25 11:14:53;;;;;;;4.38;1.80;;;3.60;94.50;;;;;;5050467;28;20504;-69
2020/12/25 11:17:22;;;;;;;2.20;1.10;;;3.60;93.90;;;;;;5049324;28;20423;-69
2020/12/25 11:19:48;;;;;;;2.13;1.42;;;3.40;93.00;;;;;;5070186;28;20408;-69
2020/12/25 11:22:15;;;;;;;2.53;1.50;;;3.40;93.30;;;;;;5072822;28;20876;-69
2020/12/25 11:24:42;;;;;;;1.17;1.05;;;3.40;93.00;;;;;;5040725;28;20681;-69
2020/12/25 11:27:11;;;;;;;1.42;1.05;;;3.40;93.40;;;;;;5053154;28;20405;-69
2020/12/25 11:29:40;;;;;;;1.45;1.20;;;3.40;93.30;;;;;;5050475;28;20405;-69
2020/12/25 11:32:07;;;;;;;1.33;1.13;;;3.40;93.50;;;;;;5052837;28;20401;-69
2020/12/25 11:34:33;;;;;;;1.60;1.20;;;3.20;93.60;;;;;;5054821;28;20431;-69
2020/12/25 11:37:01;;;;;;;1.15;0.90;;;3.10;93.90;;;;;;5073020;28;20415;-69
2020/12/25 11:39:28;;;;;;;2.05;0.93;;;3.10;93.40;;;;;;5052244;28;20415;-69
2020/12/25 11:41:55;;;;;;;2.75;1.13;;;3.10;94.10;;;;;;5072332;28;20514;-69
2020/12/25 11:44:21;;;;;;;1.70;1.20;;;3.10;94.00;;;;;;5072883;28;20640;-69
2020/12/25 11:46:48;;;;;;;1.45;1.13;;;3.00;94.20;;;;;;5050584;28;20496;-69
2020/12/25 11:49:14;;;;;;;2.20;1.42;;;3.00;94.30;;;;;;5051474;28;20471;-69
2020/12/25 11:51:40;;;;;;;1.97;1.47;;;3.00;94.50;;;;;;5065069;28;20496;-69
2020/12/25 11:54:07;;;;;;;1.95;1.38;;;3.00;94.70;;;;;;5072490;28;20411;-69
2020/12/25 11:56:35;;;;;;;1.40;1.30;;;3.00;94.70;;;;;;5040425;28;20413;-69
2020/12/25 11:59:02;;;;;;;1.53;1.37;;;3.00;94.50;;;;;;5056396;28;20407;-69
2020/12/25 12:01:29;;;;;;;1.30;1.20;;;3.00;94.70;;;;;;5068802;28;20516;-69
2020/12/25 12:03:56;;;;;;;1.65;1.50;;;3.00;94.50;;;;;;5072265;28;20411;-69
2020/12/25 12:06:25;;;;;;;3.10;1.42;;;3.00;94.10;;;;;;5068812;28;20419;-69
2020/12/25 12:08:52;;;;;;;1.60;1.50;;;2.90;94.30;;;;;;5072252;28;20957;-71
2020/12/25 12:11:28;;;;;;;2.10;1.20;;;2.90;94.70;;;;;;5052192;28;20477;-69
2020/12/25 12:13:55;;;;;;;2.00;1.50;;;2.80;94.70;;;;;;5072426;28;20415;-69
2020/12/25 12:16:23;;;;;;;2.53;1.73;;;2.80;95.00;;;;;;5068310;28;20886;-69
2020/12/25 12:18:50;;;;;;;1.50;1.40;;;2.80;95.00;;;;;;5034582;28;20409;-69
2020/12/25 12:21:26;;;;;;;1.60;1.30;;;2.80;94.80;;;;;;5051846;28;20819;-69
2020/12/25 12:23:55;;;;;;;1.63;1.40;;;2.80;95.20;;;;;;5049625;28;20528;-69
2020/12/25 12:26:23;;;;;;;1.55;1.20;;;2.80;94.90;;;;;;5034375;28;20785;-69
2020/12/25 12:28:49;;;;;;;1.17;1.00;;;2.80;95.10;;;;;;5064358;28;20403;-69
2020/12/25 12:31:16;;;;;;;1.10;1.00;;;2.80;94.90;;;;;;5072077;28;20810;-69
2020/12/25 12:33:42;;;;;;;2.22;1.20;;;2.80;95.10;;;;;;5067861;28;20493;-69
2020/12/25 12:36:09;;;;;;;1.40;1.30;;;2.90;95.00;;;;;;5054463;28;20899;-69
2020/12/25 12:38:35;;;;;;;1.50;1.40;;;2.90;94.60;;;;;;5042496;28;20471;-69
2020/12/25 12:41:03;;;;;;;1.50;1.40;;;2.90;94.90;;;;;;5051467;28;20532;-69
2020/12/25 12:43:34;;;;;;;1.40;1.30;;;2.90;94.80;;;;;;5053728;28;20400;-69
2020/12/25 12:46:00;;;;;;;1.60;1.50;;;2.80;94.80;;;;;;5054060;28;20469;-69
2020/12/25 12:48:27;;;;;;;1.90;1.70;;;2.90;94.90;;;;;;5047788;28;20927;-69
2020/12/25 12:50:53;;;;;;;1.98;1.75;;;2.90;95.00;;;;;;5052212;28;20852;-69
2020/12/25 12:53:22;;;;;;;1.70;1.45;;;2.90;95.20;;;;;;5033892;28;20401;-69
2020/12/25 12:55:49;;;;;;;3.25;2.03;;;2.80;94.90;;;;;;5050135;28;20479;-69
2020/12/25 12:58:17;;;;;;;2.63;1.90;;;2.80;95.10;;;;;;5051115;28;20845;-69
2020/12/25 13:00:56;;;;;;;2.08;1.58;;;2.90;95.00;;;;;;5033714;28;20421;-69